createdAt,value
2022-10-01T00:04:47.161Z,11.34
2022-10-01T00:09:50.224Z,11.34
2022-10-01T00:14:54.626Z,11.33
2022-10-01T00:19:57.955Z,11.30
2022-10-01T00:25:05.511Z,11.28
2022-10-01T00:30:11.161Z,11.25
2022-10-01T00:35:14.642Z,11.27
2022-10-01T00:40:19.458Z,11.26
2022-10-01T00:45:24.033Z,11.20
2022-10-01T00:50:33.319Z,11.22
2022-10-01T00:55:39.102Z,11.15
2022-10-01T01:00:44.386Z,11.11
2022-10-01T01:05:48.060Z,11.14
2022-10-01T01:10:58.069Z,11.15
2022-10-01T01:16:07.211Z,11.11
2022-10-01T01:21:20.514Z,11.15
2022-10-01T01:26:34.664Z,11.13
2022-10-01T01:31:46.410Z,11.15
2022-10-01T01:36:54.535Z,11.12
2022-10-01T01:42:01.936Z,11.14
2022-10-01T01:47:10.584Z,11.09
2022-10-01T01:52:16.143Z,11.13
2022-10-01T01:57:21.132Z,11.05
2022-10-01T02:02:33.241Z,11.13
2022-10-01T02:07:57.276Z,11.10
2022-10-01T02:13:15.391Z,11.12
2022-10-01T02:18:29.590Z,11.16
2022-10-01T02:23:37.304Z,11.15
2022-10-01T02:28:42.294Z,11.20
2022-10-01T02:33:48.367Z,11.23
2022-10-01T02:38:53.486Z,11.26
2022-10-01T02:44:00.733Z,11.28
2022-10-01T02:49:05.523Z,11.30
2022-10-01T02:54:14.783Z,11.28
2022-10-01T02:59:17.910Z,11.35
2022-10-01T03:04:22.250Z,11.41
2022-10-01T03:09:25.558Z,11.37
2022-10-01T03:14:28.842Z,11.45
2022-10-01T03:19:33.254Z,11.49
2022-10-01T03:24:36.276Z,11.51
2022-10-01T03:29:39.325Z,11.55
2022-10-01T03:34:43.762Z,11.61
2022-10-01T03:39:46.701Z,11.60
2022-10-01T03:44:49.779Z,11.67
2022-10-01T03:49:54.114Z,11.74
2022-10-01T03:54:57.057Z,11.78
2022-10-01T04:00:00.101Z,11.77
2022-10-01T04:05:05.458Z,11.93
2022-10-01T04:10:09.555Z,12.00
2022-10-01T04:15:12.633Z,12.02
2022-10-01T04:20:17.099Z,12.14
2022-10-01T04:25:20.352Z,12.23
2022-10-01T04:30:23.650Z,12.28
2022-10-01T04:35:28.429Z,12.36
2022-10-01T04:40:31.794Z,12.39
2022-10-01T04:45:34.699Z,12.46
2022-10-01T04:50:39.031Z,12.53
2022-10-01T04:55:42.985Z,12.51
2022-10-01T05:00:46.049Z,12.50
2022-10-01T05:05:50.457Z,12.60
2022-10-01T05:10:53.411Z,12.67
2022-10-01T05:15:56.510Z,12.60
2022-10-01T05:21:06.022Z,12.70
2022-10-01T05:26:09.525Z,12.77
2022-10-01T05:31:13.464Z,12.74
2022-10-01T05:36:18.028Z,12.73
2022-10-01T05:41:21.048Z,12.71
2022-10-01T05:46:24.120Z,12.79
2022-10-01T05:51:29.522Z,12.85
2022-10-01T05:56:32.812Z,12.90
2022-10-01T06:01:36.249Z,12.93
2022-10-01T06:06:40.914Z,12.95
2022-10-01T06:11:44.109Z,12.94
2022-10-01T06:16:47.912Z,12.94
2022-10-01T06:21:53.115Z,12.95
2022-10-01T06:26:56.491Z,12.83
2022-10-01T06:31:59.807Z,12.89
2022-10-01T06:37:04.133Z,12.90
2022-10-01T06:42:08.482Z,12.87
2022-10-01T06:47:11.514Z,12.99
2022-10-01T06:52:33.654Z,13.05
2022-10-01T06:57:36.766Z,13.13
2022-10-01T07:02:40.312Z,13.17
2022-10-01T07:07:45.290Z,13.28
2022-10-01T07:12:49.998Z,13.48
2022-10-01T07:17:53.785Z,13.64
2022-10-01T07:23:00.697Z,13.92
2022-10-01T07:28:07.125Z,13.93
2022-10-01T07:33:10.384Z,13.80
2022-10-01T07:38:14.791Z,13.49
2022-10-01T07:43:17.780Z,13.47
2022-10-01T07:48:21.253Z,13.48
2022-10-01T07:53:26.323Z,13.69
2022-10-01T07:58:29.422Z,13.74
2022-10-01T08:03:32.740Z,13.63
2022-10-01T08:08:37.241Z,13.61
2022-10-01T08:13:40.317Z,13.75
2022-10-01T08:18:43.318Z,13.82
2022-10-01T08:23:47.739Z,14.02
2022-10-01T08:28:50.779Z,14.41
2022-10-01T08:33:53.927Z,14.75
2022-10-01T08:39:00.352Z,15.13
2022-10-01T08:44:06.433Z,15.36
2022-10-01T08:49:18.656Z,15.79
2022-10-01T08:54:32.437Z,16.20
2022-10-01T08:59:41.299Z,16.67
2022-10-01T09:04:44.463Z,17.24
2022-10-01T09:10:01.594Z,17.62
2022-10-01T09:15:19.442Z,17.85
2022-10-01T09:20:27.032Z,18.14
2022-10-01T09:25:34.198Z,17.55
2022-10-01T09:30:38.602Z,17.16
2022-10-01T09:35:45.407Z,16.87
2022-10-01T09:40:54.949Z,16.84
2022-10-01T09:45:58.117Z,17.20
2022-10-01T09:51:10.220Z,17.48
2022-10-01T09:56:20.347Z,18.01
2022-10-01T10:01:30.951Z,18.31
2022-10-01T10:06:34.210Z,18.18
2022-10-01T10:11:42.953Z,18.77
2022-10-01T10:16:47.890Z,18.40
2022-10-01T10:21:53.147Z,18.06
2022-10-01T10:47:34.275Z,18.88
2022-10-01T10:52:40.786Z,18.88
2022-10-01T10:57:47.151Z,18.49
2022-10-01T11:02:56.795Z,18.52
2022-10-01T11:08:05.032Z,18.64
2022-10-01T11:13:34.225Z,19.04
2022-10-01T11:18:55.957Z,18.91
2022-10-01T11:24:23.761Z,18.52
2022-10-01T11:29:39.222Z,18.74
2022-10-01T11:35:00.635Z,18.39
2022-10-01T11:40:14.342Z,18.55
2022-10-01T11:45:24.267Z,18.57
2022-10-01T11:50:35.136Z,18.81
2022-10-01T11:56:04.517Z,18.88
2022-10-01T12:02:00.785Z,18.76
2022-10-01T12:07:14.807Z,18.66
2022-10-01T12:12:22.496Z,19.03
2022-10-01T12:17:34.179Z,19.67
2022-10-01T12:22:40.836Z,19.78
2022-10-01T12:27:55.650Z,19.91
2022-10-01T12:33:18.778Z,19.92
2022-10-01T12:38:40.899Z,19.31
2022-10-01T12:44:09.564Z,18.82
2022-10-01T12:49:23.547Z,18.62
2022-10-01T12:54:41.854Z,18.18
2022-10-01T12:59:59.551Z,18.18
2022-10-01T13:05:29.379Z,18.28
2022-10-01T13:10:52.786Z,18.12
2022-10-01T13:16:03.266Z,17.79
2022-10-01T13:21:13.311Z,17.92
2022-10-01T13:26:24.874Z,18.23
2022-10-01T13:31:38.836Z,18.43
2022-10-01T13:36:42.092Z,18.37
2022-10-01T13:41:48.079Z,18.19
2022-10-01T13:46:54.537Z,18.00
2022-10-01T13:51:59.053Z,18.33
2022-10-01T13:57:11.561Z,18.72
2022-10-01T14:02:32.135Z,19.08
2022-10-01T14:07:40.057Z,19.28
2022-10-01T14:13:05.370Z,19.30
2022-10-01T14:18:12.657Z,19.51
2022-10-01T14:23:20.898Z,19.53
2022-10-01T14:28:43.919Z,19.86
2022-10-01T14:34:10.447Z,19.74
2022-10-01T14:39:16.630Z,19.53
2022-10-01T14:44:24.553Z,19.76
2022-10-01T14:49:30.136Z,19.84
2022-10-01T14:54:42.990Z,19.90
2022-10-01T14:59:52.735Z,19.79
2022-10-01T15:04:57.685Z,20.14
2022-10-01T15:10:07.306Z,20.23
2022-10-01T15:15:20.703Z,20.13
2022-10-01T15:20:23.883Z,19.83
2022-10-01T15:25:31.506Z,19.45
2022-10-01T15:36:08.706Z,19.43
2022-10-01T15:41:35.099Z,19.16
2022-10-01T15:46:42.823Z,19.34
2022-10-01T15:52:12.292Z,19.48
2022-10-01T15:57:21.938Z,19.51
2022-10-01T16:02:30.003Z,19.10
2022-10-01T16:07:35.427Z,19.10
2022-10-01T16:12:38.815Z,19.02
2022-10-01T16:17:55.949Z,18.86
2022-10-01T16:23:40.063Z,18.67
2022-10-01T16:28:43.324Z,18.78
2022-10-01T16:33:49.690Z,18.43
2022-10-01T16:38:56.275Z,18.22
2022-10-01T16:44:02.157Z,17.94
2022-10-01T16:49:12.725Z,17.76
2022-10-01T16:54:22.446Z,17.60
2022-10-01T16:59:25.536Z,17.40
2022-10-01T17:04:33.984Z,17.13
2022-10-01T17:09:37.314Z,17.09
2022-10-01T17:14:40.945Z,17.18
2022-10-01T17:19:45.237Z,17.08
2022-10-01T17:24:48.771Z,16.82
2022-10-01T17:29:52.213Z,16.75
2022-10-01T17:34:58.874Z,16.65
2022-10-01T17:40:02.103Z,16.54
2022-10-01T17:45:08.275Z,16.42
2022-10-01T17:50:13.828Z,16.38
2022-10-01T17:55:17.279Z,16.32
2022-10-01T18:00:21.111Z,16.31
2022-10-01T18:05:25.528Z,16.22
2022-10-01T18:10:28.591Z,16.19
2022-10-01T18:15:31.561Z,15.98
2022-10-01T18:20:38.763Z,15.81
2022-10-01T18:25:42.004Z,15.74
2022-10-01T18:30:45.067Z,15.72
2022-10-01T18:35:59.302Z,15.74
2022-10-01T18:41:10.155Z,15.75
2022-10-01T18:46:25.302Z,15.71
2022-10-01T18:51:40.659Z,15.55
2022-10-01T18:56:53.040Z,15.48
2022-10-01T19:02:14.178Z,15.43
2022-10-01T19:07:33.452Z,15.31
2022-10-01T19:12:47.947Z,15.21
2022-10-01T19:18:06.286Z,15.13
2022-10-01T19:23:35.222Z,15.02
2022-10-01T19:28:50.656Z,14.86
2022-10-01T19:34:01.462Z,14.80
2022-10-01T19:39:11.767Z,14.65
2022-10-01T19:44:18.466Z,14.53
2022-10-01T19:49:27.743Z,14.48
2022-10-01T19:54:34.947Z,14.30
2022-10-01T19:59:38.243Z,14.32
2022-10-01T20:04:52.686Z,14.26
2022-10-01T20:10:05.800Z,14.19
2022-10-01T20:15:21.787Z,14.16
2022-10-01T20:20:33.426Z,14.15
2022-10-01T20:25:49.118Z,14.08
2022-10-01T20:31:01.342Z,14.07
2022-10-01T20:36:17.628Z,14.02
2022-10-01T20:41:25.017Z,14.02
2022-10-01T20:46:33.750Z,14.01
2022-10-01T20:51:46.018Z,13.99
2022-10-01T20:57:01.726Z,13.99
2022-10-01T21:02:19.028Z,13.96
2022-10-01T21:07:37.304Z,13.93
2022-10-01T21:12:49.128Z,13.96
2022-10-01T21:18:06.684Z,13.92
2022-10-01T21:23:22.537Z,13.98
2022-10-01T21:28:57.388Z,13.87
2022-10-01T21:34:03.963Z,13.97
2022-10-01T21:39:14.661Z,13.89
2022-10-01T21:44:52.762Z,13.91
2022-10-01T21:50:06.178Z,13.88
2022-10-01T21:55:37.393Z,13.94
2022-10-01T22:00:42.069Z,13.98
2022-10-01T22:05:51.862Z,13.97
2022-10-01T22:10:59.863Z,13.94
2022-10-01T22:16:09.799Z,14.03
2022-10-01T22:21:14.961Z,14.10
2022-10-01T22:26:22.409Z,14.17
2022-10-01T22:31:31.952Z,14.05
2022-10-01T22:36:40.512Z,13.87
2022-10-01T22:41:47.984Z,13.47
2022-10-01T22:47:30.472Z,13.36
2022-10-01T22:52:41.832Z,13.40
2022-10-01T22:58:07.232Z,13.49
2022-10-01T23:03:20.495Z,13.53
2022-10-01T23:08:40.595Z,13.45
2022-10-01T23:13:53.227Z,13.40
2022-10-01T23:19:08.283Z,13.37
2022-10-01T23:24:26.649Z,13.32
2022-10-01T23:29:47.728Z,13.30
2022-10-01T23:34:56.874Z,13.32
2022-10-01T23:40:07.520Z,13.36
2022-10-01T23:45:20.031Z,13.35
2022-10-01T23:50:32.169Z,13.32
2022-10-01T23:56:03.617Z,13.29
